Packwood, WA (98361)

4:07 AM PST on February 19, 2017 (GMT -0800)
Cowlitz Vista | | Change Station
Active Advisory: Small Craft Advisory

Elev 1188 ft 46.62 °N, 121.67 °W | Updated 16 seconds ago

Overcast
Overcast
35.4 °F
Feels Like 35 °F
N
0.0
Wind Variable Wind from West

Today
High -- | Low -- °F
--% Chance of Precip.
Yesterday
High -- | Low -- °F
Precip. -- in
Pressure 29.42 in
Visibility 10.0 miles
Clouds Mostly Cloudy 3700 ft
Overcast 5000 ft
Windchill 35 °F
Dew Point 35 °F
Humidity 98%
Rainfall 0.02 in
Snow Depth Not available.
7:03 AM 5:38 PM
Last Quarter, 44% visible
METAR KTCM 191158Z AUTO 00000KT 10SM BKN037 OVC050 05/05 A2940 RMK AO2 RAE31DZB31E43 SLP961 P0002 60005 70036 T00500050 10060 20046 57010 $
Pressure 29.42 in
Visibility 10.0 miles
Clouds Mostly Cloudy 3700 ft
Overcast 5000 ft
Windchill 35 °F
Dew Point 35 °F
Humidity 98%
Rainfall 0.02 in
Snow Depth Not available.
7:03 AM 5:38 PM
Last Quarter, 44% visible
METAR KTCM 191158Z AUTO 00000KT 10SM BKN037 OVC050 05/05 A2940 RMK AO2 RAE31DZB31E43 SLP961 P0002 60005 70036 T00500050 10060 20046 57010 $

Get Your Daily Forecast Email!

Thanks for signing up!

Be on the lookout for a verification email in your inbox.

You'll start receiving the daily forecast at 8 AM.

×

10-Day Weather Forecast

Almanac

Astronomy

Feb. 19, 2017 Rise Set
Actual Time
Civil Twilight
Nautical Twilight
Astronomical Twilight
Moon
Length of Visible Light
Length of Day
Tomorrow will be .
, % of the Moon is Illuminated

Today's Extremes

State Highs State Lows

Community

WunderPhotos

Upload Photos

1,962,540 photos uploaded!

WunderBlog® & News

Nearby

Air Quality

  Air Quality AQ Index Pollutant
Not available.

Snow Depth

Station Depth Elevation

Earthquake Activity

City Distance Mag. Time & Date
Minimum magnitude displayed is 2.5.

Coastal Water Temperatures

Place Temperature

Stations

Nearby Weather Stations

Station Location Temp. Windchill Dew Point Humidity Wind Precip. Elev Updated Type
                   

Watches & Warnings

Small Craft Advisory
Issued: 2:37 AM PST Feb. 19, 2017 – National Weather Service

... Small Craft Advisory in effect from 10 am this morning to
midnight PST tonight...

The National Weather Service in Seattle has issued a Small Craft
Advisory... which is in effect from 10 am this morning to midnight
PST tonight.

* Winds... south 15 to 25 knots.

* Waves/seas... wind waves 2 to 4 feet.

Precautionary/preparedness actions...

A Small Craft Advisory means that wind speeds of 21 to 33 knots are
expected to produce hazardous wave conditions to small craft.
Inexperienced mariners... especially those operating smaller vessels
should avoid navigating in these conditions.